createdAt,value
2018-06-22T00:02:05.888Z,50.04
2018-06-22T00:04:34.680Z,50.23
2018-06-22T00:07:03.702Z,50.55
2018-06-22T00:09:32.465Z,50.64
2018-06-22T00:12:01.232Z,50.54
2018-06-22T00:14:30.061Z,49.94
2018-06-22T00:16:59.555Z,48.97
2018-06-22T00:19:29.400Z,49.00
2018-06-22T00:21:58.110Z,48.89
2018-06-22T00:24:27.382Z,48.73
2018-06-22T00:26:57.507Z,47.92
2018-06-22T00:29:26.426Z,48.25
2018-06-22T00:31:55.268Z,48.66
2018-06-22T00:34:24.446Z,49.05
2018-06-22T00:37:06.849Z,48.24
2018-06-22T00:39:35.765Z,48.26
2018-06-22T00:42:07.346Z,48.12
2018-06-22T00:44:36.192Z,48.29
2018-06-22T00:47:14.723Z,48.08
2018-06-22T00:49:48.800Z,48.63
2018-06-22T00:52:17.716Z,47.94
2018-06-22T00:54:46.595Z,46.25
2018-06-22T00:57:16.695Z,46.66
2018-06-22T00:59:49.109Z,45.10
2018-06-22T01:02:17.863Z,44.19
2018-06-22T01:04:46.680Z,44.99
2018-06-22T01:07:15.441Z,45.52
2018-06-22T01:09:44.261Z,45.93
2018-06-22T01:12:13.031Z,46.66
2018-06-22T01:14:42.413Z,46.30
2018-06-22T01:17:11.234Z,46.70
2018-06-22T01:19:39.979Z,45.81
2018-06-22T01:22:08.749Z,45.89
2018-06-22T01:24:37.441Z,46.18
2018-06-22T01:27:06.200Z,46.12
2018-06-22T01:29:35.008Z,46.83
2018-06-22T01:32:03.785Z,47.06
2018-06-22T01:34:32.511Z,47.11
2018-06-22T01:37:01.235Z,47.03
2018-06-22T01:39:30.379Z,47.26
2018-06-22T01:41:59.326Z,47.92
2018-06-22T01:44:28.132Z,47.79
2018-06-22T01:46:57.115Z,47.20
2018-06-22T01:49:26.092Z,47.13
2018-06-22T01:51:55.444Z,47.72
2018-06-22T01:54:24.239Z,46.85
2018-06-22T01:56:54.526Z,45.74
2018-06-22T01:59:23.872Z,46.07
2018-06-22T02:01:52.979Z,45.80
2018-06-22T02:04:21.733Z,45.99
2018-06-22T02:06:50.756Z,45.97
2018-06-22T02:09:19.722Z,45.54
2018-06-22T02:11:48.658Z,44.60
2018-06-22T02:14:17.403Z,45.10
2018-06-22T02:16:46.074Z,45.07
2018-06-22T02:19:14.807Z,45.24
2018-06-22T02:21:43.498Z,44.87
2018-06-22T02:24:12.243Z,45.01
2018-06-22T02:26:40.994Z,45.47
2018-06-22T02:29:09.775Z,45.29
2018-06-22T02:31:44.067Z,45.53
2018-06-22T02:34:12.806Z,46.07
2018-06-22T02:36:41.892Z,45.95
2018-06-22T02:39:11.937Z,46.26
2018-06-22T02:41:40.667Z,46.60
2018-06-22T02:44:09.667Z,46.15
2018-06-22T02:46:39.008Z,46.23
2018-06-22T02:49:07.763Z,46.31
2018-06-22T02:51:36.456Z,46.45
2018-06-22T02:54:05.281Z,46.36
2018-06-22T02:56:34.332Z,46.72
2018-06-22T02:59:03.051Z,46.94
2018-06-22T03:01:31.795Z,46.96
2018-06-22T03:04:00.519Z,47.31
2018-06-22T03:06:29.249Z,47.15
2018-06-22T03:08:58.001Z,47.38
2018-06-22T03:11:26.683Z,47.34
2018-06-22T03:13:56.293Z,47.83
2018-06-22T03:16:25.031Z,48.02
2018-06-22T03:18:53.799Z,47.79
2018-06-22T03:21:22.550Z,48.24
2018-06-22T03:23:51.307Z,48.37
2018-06-22T03:26:20.470Z,48.45
2018-06-22T03:28:49.224Z,48.95
2018-06-22T03:31:17.947Z,48.56
2018-06-22T03:33:46.682Z,49.38
2018-06-22T03:36:15.390Z,49.61
2018-06-22T03:38:44.145Z,49.67
2018-06-22T03:41:13.038Z,49.87
2018-06-22T03:43:41.786Z,49.73
2018-06-22T03:46:10.479Z,49.65
2018-06-22T03:48:39.157Z,49.54
2018-06-22T03:51:07.943Z,49.60
2018-06-22T03:53:36.687Z,49.67
2018-06-22T03:56:05.963Z,49.87
2018-06-22T03:58:34.641Z,48.83
2018-06-22T04:01:03.395Z,48.46
2018-06-22T04:03:32.188Z,48.89
2018-06-22T04:06:01.042Z,48.89
2018-06-22T04:08:29.804Z,49.29
2018-06-22T04:10:58.604Z,48.75
2018-06-22T04:13:27.348Z,48.68
2018-06-22T04:15:56.133Z,48.36
2018-06-22T04:18:24.867Z,48.28
2018-06-22T04:20:54.260Z,47.69
2018-06-22T04:23:23.187Z,47.36
2018-06-22T04:25:52.009Z,47.61
2018-06-22T04:28:20.764Z,48.15
2018-06-22T04:30:50.485Z,48.03
2018-06-22T04:33:20.525Z,47.12
2018-06-22T04:35:49.299Z,46.79
2018-06-22T04:38:23.720Z,46.68
2018-06-22T04:40:55.371Z,45.79
2018-06-22T04:43:32.298Z,45.79
2018-06-22T04:46:02.040Z,45.71
2018-06-22T04:48:30.790Z,45.75
2018-06-22T04:50:59.599Z,45.47
2018-06-22T04:53:28.696Z,45.54
2018-06-22T04:55:57.557Z,45.72
2018-06-22T04:58:26.319Z,45.08
2018-06-22T05:00:55.079Z,44.87
2018-06-22T05:03:24.162Z,44.20
2018-06-22T05:05:52.916Z,43.94
2018-06-22T05:08:21.731Z,44.03
2018-06-22T05:10:50.819Z,43.88
2018-06-22T05:13:19.614Z,44.23
2018-06-22T05:15:48.461Z,44.41
2018-06-22T05:18:17.154Z,43.54
2018-06-22T05:20:46.888Z,43.46
2018-06-22T05:23:15.642Z,43.14
2018-06-22T05:25:44.522Z,43.66
2018-06-22T05:28:13.258Z,43.71
2018-06-22T05:30:42.518Z,43.14
2018-06-22T05:33:11.338Z,43.44
2018-06-22T05:35:40.060Z,43.25
2018-06-22T05:38:08.935Z,42.83
2018-06-22T05:40:38.795Z,42.84
2018-06-22T05:43:07.709Z,43.13
2018-06-22T05:45:36.463Z,42.38
2018-06-22T05:48:05.343Z,42.51
2018-06-22T05:50:34.115Z,42.14
2018-06-22T05:53:03.055Z,41.84
2018-06-22T05:55:31.978Z,42.03
2018-06-22T05:58:00.930Z,42.23
2018-06-22T06:00:30.219Z,42.28
2018-06-22T06:03:02.101Z,41.73
2018-06-22T06:05:30.873Z,42.02
2018-06-22T06:07:59.607Z,42.08
2018-06-22T06:10:28.393Z,42.60
2018-06-22T06:12:57.102Z,42.15
2018-06-22T06:15:26.008Z,42.33
2018-06-22T06:17:54.901Z,42.80
2018-06-22T06:20:23.616Z,42.54
2018-06-22T06:22:52.312Z,43.13
2018-06-22T06:25:21.100Z,42.88
2018-06-22T06:27:49.842Z,43.01
2018-06-22T06:30:18.695Z,42.96
2018-06-22T06:32:47.549Z,43.64
2018-06-22T06:35:16.277Z,43.42
2018-06-22T06:37:45.004Z,44.13
2018-06-22T06:40:13.829Z,44.01
2018-06-22T06:42:42.568Z,43.46
2018-06-22T06:45:12.544Z,43.94
2018-06-22T06:47:42.277Z,44.70
2018-06-22T06:50:11.067Z,43.80
2018-06-22T06:52:39.751Z,43.98
2018-06-22T06:55:09.642Z,44.60
2018-06-22T06:57:39.094Z,44.58
2018-06-22T07:00:09.462Z,44.30
2018-06-22T07:02:38.336Z,43.94
2018-06-22T07:05:07.155Z,44.65
2018-06-22T07:07:35.864Z,45.04
2018-06-22T07:10:04.821Z,44.84
2018-06-22T07:12:33.592Z,44.82
2018-06-22T07:15:02.322Z,45.04
2018-06-22T07:17:31.054Z,44.49
2018-06-22T07:19:59.752Z,45.27
2018-06-22T07:22:28.452Z,44.75
2018-06-22T07:24:57.151Z,44.54
2018-06-22T07:27:25.841Z,44.64
2018-06-22T07:29:54.547Z,44.09
2018-06-22T07:32:23.311Z,44.27
2018-06-22T07:34:52.039Z,44.35
2018-06-22T07:37:20.811Z,44.54
2018-06-22T07:39:49.522Z,44.90
2018-06-22T07:42:18.300Z,45.27
2018-06-22T07:44:46.981Z,45.19
2018-06-22T07:47:15.745Z,44.70
2018-06-22T07:49:44.501Z,43.94
2018-06-22T07:52:13.266Z,44.84
2018-06-22T07:54:41.948Z,44.60
2018-06-22T07:57:10.651Z,44.95
2018-06-22T07:59:39.473Z,44.71
2018-06-22T08:02:08.204Z,44.64
2018-06-22T08:04:36.881Z,44.22
2018-06-22T08:07:05.579Z,43.97
2018-06-22T08:09:34.271Z,42.83
2018-06-22T08:12:03.342Z,42.40
2018-06-22T08:14:32.041Z,43.05
2018-06-22T08:17:00.752Z,42.52
2018-06-22T08:19:29.478Z,41.79
2018-06-22T08:21:58.250Z,42.03
2018-06-22T08:24:27.079Z,41.34
2018-06-22T08:26:55.912Z,40.89
2018-06-22T08:29:24.663Z,40.62
2018-06-22T08:31:53.380Z,39.64
2018-06-22T08:34:22.173Z,40.15
2018-06-22T08:36:50.927Z,39.92
2018-06-22T08:39:19.681Z,39.76
2018-06-22T08:41:48.480Z,40.23
2018-06-22T08:44:17.582Z,40.13
2018-06-22T08:46:46.321Z,39.65
2018-06-22T08:49:15.035Z,41.41
2018-06-22T08:51:44.184Z,41.46
2018-06-22T08:54:13.062Z,41.11
2018-06-22T08:56:42.238Z,41.76
2018-06-22T08:59:11.567Z,42.65
2018-06-22T09:01:40.362Z,42.38
2018-06-22T09:04:09.270Z,42.84
2018-06-22T09:06:38.011Z,42.75
2018-06-22T09:09:08.341Z,42.28
2018-06-22T09:11:42.323Z,42.84
2018-06-22T09:14:11.823Z,43.08
2018-06-22T09:16:40.671Z,42.86
2018-06-22T09:19:09.528Z,42.48
2018-06-22T09:21:38.955Z,42.43
2018-06-22T09:24:07.712Z,41.71
2018-06-22T09:26:36.435Z,41.41
2018-06-22T09:29:05.182Z,41.51
2018-06-22T09:31:33.942Z,41.14
2018-06-22T09:34:02.672Z,39.46
2018-06-22T09:36:31.363Z,39.55
2018-06-22T09:39:00.133Z,39.56
2018-06-22T09:41:28.905Z,39.38
2018-06-22T09:43:57.610Z,39.90
2018-06-22T09:46:26.414Z,40.37
2018-06-22T09:48:55.241Z,40.02
2018-06-22T09:51:23.954Z,40.30
2018-06-22T09:53:52.704Z,40.44
2018-06-22T09:56:21.529Z,39.20
2018-06-22T09:58:50.251Z,39.65
2018-06-22T10:01:18.994Z,39.09
2018-06-22T10:03:47.687Z,39.18
2018-06-22T10:06:16.359Z,38.90
2018-06-22T10:08:45.057Z,39.50
2018-06-22T10:11:13.757Z,40.14
2018-06-22T10:13:42.507Z,39.35
2018-06-22T10:16:11.275Z,39.07
2018-06-22T10:18:39.975Z,38.76
2018-06-22T10:21:08.734Z,38.93
2018-06-22T10:23:37.472Z,38.87
2018-06-22T10:26:06.167Z,38.95
2018-06-22T10:28:34.971Z,38.33
2018-06-22T10:31:03.651Z,39.56
2018-06-22T10:33:32.354Z,40.25
2018-06-22T10:36:01.142Z,40.24
2018-06-22T10:38:29.921Z,40.27
2018-06-22T10:40:58.620Z,40.17
2018-06-22T10:43:27.374Z,39.94
2018-06-22T10:45:56.241Z,38.94
2018-06-22T10:48:24.974Z,37.35
2018-06-22T10:50:53.736Z,36.49
2018-06-22T10:53:22.447Z,36.30
2018-06-22T10:55:51.180Z,35.41
2018-06-22T10:58:19.952Z,35.65
2018-06-22T11:00:49.154Z,36.21
2018-06-22T11:03:18.568Z,35.61
2018-06-22T11:05:47.337Z,35.25
2018-06-22T11:08:18.057Z,35.85
2018-06-22T11:10:46.894Z,35.45
2018-06-22T11:13:15.618Z,35.89
2018-06-22T11:15:44.440Z,34.67
2018-06-22T11:18:13.244Z,35.58
2018-06-22T11:20:42.099Z,35.56
2018-06-22T11:23:10.837Z,34.65
2018-06-22T11:25:39.572Z,34.09
2018-06-22T11:28:08.575Z,35.29
2018-06-22T11:30:37.448Z,35.76
2018-06-22T11:33:06.175Z,35.81
2018-06-22T11:35:34.978Z,34.62
2018-06-22T11:38:03.645Z,34.51
2018-06-22T11:40:32.403Z,32.81
2018-06-22T11:43:01.143Z,33.12
2018-06-22T11:45:29.839Z,32.03
2018-06-22T11:47:58.622Z,30.37
2018-06-22T11:50:27.380Z,30.31
2018-06-22T11:52:56.079Z,29.94
2018-06-22T11:55:24.840Z,29.46
2018-06-22T11:57:53.526Z,29.17
2018-06-22T12:00:22.254Z,29.50
2018-06-22T12:02:50.967Z,29.36
2018-06-22T12:05:19.687Z,28.78
2018-06-22T12:07:48.430Z,29.55
2018-06-22T12:10:17.198Z,30.46
2018-06-22T12:12:45.891Z,30.38
2018-06-22T12:15:14.620Z,29.91
2018-06-22T12:17:43.322Z,30.32
2018-06-22T12:20:12.068Z,30.28
2018-06-22T12:22:40.747Z,30.54
2018-06-22T12:25:09.553Z,30.52
2018-06-22T12:27:38.331Z,30.94
2018-06-22T12:30:07.169Z,30.93
2018-06-22T12:32:35.882Z,32.09
2018-06-22T12:35:07.994Z,32.20
2018-06-22T12:37:36.881Z,32.04
2018-06-22T12:40:05.596Z,31.39
2018-06-22T12:42:40.363Z,31.51
2018-06-22T12:45:09.123Z,31.45
2018-06-22T12:47:41.601Z,31.59
2018-06-22T12:50:18.271Z,31.68
2018-06-22T12:52:48.364Z,31.47
2018-06-22T12:55:17.192Z,32.10
2018-06-22T12:57:45.915Z,32.02
2018-06-22T13:00:14.830Z,32.89
2018-06-22T13:02:43.566Z,33.17
2018-06-22T13:05:12.306Z,33.80
2018-06-22T13:07:41.071Z,33.27
2018-06-22T13:10:09.878Z,33.34
2018-06-22T13:12:38.654Z,33.15
2018-06-22T13:15:07.448Z,33.87
2018-06-22T13:17:36.119Z,33.84
2018-06-22T13:20:04.944Z,34.53
2018-06-22T13:22:36.222Z,35.04
2018-06-22T13:25:05.052Z,35.38
2018-06-22T13:27:34.455Z,35.67
2018-06-22T13:30:03.178Z,34.87
2018-06-22T13:32:33.133Z,35.65
2018-06-22T13:35:02.712Z,36.79
2018-06-22T13:37:32.938Z,38.45
2018-06-22T13:40:02.234Z,38.64
2018-06-22T13:42:30.982Z,40.33
2018-06-22T13:44:59.736Z,40.17
2018-06-22T13:47:29.229Z,39.91
2018-06-22T13:49:57.989Z,38.78
2018-06-22T13:52:26.694Z,38.85
2018-06-22T13:54:55.473Z,37.20
2018-06-22T13:57:24.210Z,35.42
2018-06-22T13:59:52.959Z,33.18
2018-06-22T14:02:21.706Z,32.08
2018-06-22T14:04:55.564Z,31.50
2018-06-22T14:07:25.011Z,31.84
2018-06-22T14:09:53.857Z,31.21
2018-06-22T14:12:22.596Z,29.81
2018-06-22T14:14:51.323Z,28.88
2018-06-22T14:17:20.077Z,28.35
2018-06-22T14:19:49.078Z,29.19
2018-06-22T14:22:17.781Z,30.48
2018-06-22T14:24:46.530Z,30.96
2018-06-22T14:27:15.234Z,29.74
2018-06-22T14:29:44.433Z,30.10
2018-06-22T14:32:13.930Z,29.41
2018-06-22T14:34:42.648Z,29.16
2018-06-22T14:37:13.303Z,28.95
2018-06-22T14:39:42.094Z,28.68
2018-06-22T14:42:10.900Z,26.57
2018-06-22T14:44:39.777Z,28.02
2018-06-22T14:47:08.498Z,28.71
2018-06-22T14:49:37.281Z,30.33
2018-06-22T14:52:06.212Z,30.50
2018-06-22T14:56:47.533Z,29.66
2018-06-22T14:59:21.371Z,31.53
2018-06-22T15:04:02.209Z,32.32
2018-06-22T15:06:36.045Z,33.03
2018-06-22T15:09:07.180Z,33.75
2018-06-22T15:11:35.904Z,34.13
2018-06-22T15:14:04.786Z,34.62
2018-06-22T15:16:33.726Z,34.95
2018-06-22T15:19:02.564Z,35.17
2018-06-22T15:21:31.339Z,35.32
2018-06-22T15:24:00.161Z,35.34
2018-06-22T15:26:28.923Z,34.67
2018-06-22T15:28:57.769Z,35.13
2018-06-22T15:31:26.621Z,35.00
2018-06-22T15:34:00.788Z,35.43
2018-06-22T15:36:35.650Z,35.38
2018-06-22T15:39:12.245Z,34.71
2018-06-22T15:41:46.385Z,35.13
2018-06-22T15:44:20.326Z,35.50
2018-06-22T15:46:54.338Z,36.26
2018-06-22T15:49:28.796Z,37.03
2018-06-22T15:52:03.011Z,38.40
2018-06-22T15:54:37.214Z,42.63
2018-06-22T15:57:06.096Z,48.51
2018-06-22T15:59:35.096Z,51.76
2018-06-22T16:02:09.110Z,54.75
2018-06-22T16:04:37.939Z,56.84
2018-06-22T16:07:07.064Z,57.85
2018-06-22T16:09:39.947Z,57.48
2018-06-22T16:12:13.987Z,56.93
2018-06-22T16:14:47.903Z,57.15
2018-06-22T16:17:21.908Z,57.87
2018-06-22T16:19:55.824Z,55.22
2018-06-22T16:22:29.693Z,53.26
2018-06-22T16:25:03.504Z,50.49
2018-06-22T16:27:36.919Z,49.14
2018-06-22T16:30:07.236Z,49.95
2018-06-22T16:32:36.164Z,51.32
2018-06-22T16:35:05.140Z,52.29
2018-06-22T16:37:33.919Z,51.98
2018-06-22T16:40:02.667Z,51.50
2018-06-22T16:42:31.428Z,50.16
2018-06-22T16:45:00.748Z,49.78
2018-06-22T16:47:29.511Z,47.91
2018-06-22T16:49:58.299Z,44.46
2018-06-22T16:52:28.086Z,43.59
2018-06-22T16:54:56.845Z,44.30
2018-06-22T16:57:25.573Z,46.68
2018-06-22T16:59:54.351Z,47.55
2018-06-22T17:02:23.165Z,47.69
2018-06-22T17:04:51.892Z,47.27
2018-06-22T17:07:25.561Z,46.16
2018-06-22T17:09:59.595Z,42.39
2018-06-22T17:12:33.477Z,38.34
2018-06-22T17:15:07.324Z,35.52
2018-06-22T17:17:41.115Z,35.77
2018-06-22T17:20:09.872Z,35.32
2018-06-22T17:22:38.682Z,35.87
2018-06-22T17:25:07.403Z,37.81
2018-06-22T17:27:36.160Z,40.07
2018-06-22T17:30:05.393Z,41.29
2018-06-22T17:32:34.145Z,44.46
2018-06-22T17:35:02.948Z,47.04
2018-06-22T17:37:31.698Z,48.45
2018-06-22T17:40:00.540Z,49.07
2018-06-22T17:42:29.270Z,50.23
2018-06-22T17:44:58.055Z,51.03
2018-06-22T17:47:26.779Z,51.12
2018-06-22T17:49:55.634Z,51.49
2018-06-22T17:52:24.383Z,52.20
2018-06-22T17:54:53.082Z,52.21
2018-06-22T17:57:21.849Z,51.81
2018-06-22T17:59:55.971Z,51.71
2018-06-22T18:02:29.950Z,51.38
2018-06-22T18:05:03.842Z,51.94
2018-06-22T18:07:37.653Z,52.58
2018-06-22T18:10:11.486Z,53.63
2018-06-22T18:12:45.331Z,56.63
2018-06-22T18:15:14.030Z,58.77
2018-06-22T18:17:42.793Z,58.45
2018-06-22T18:20:11.598Z,60.94
2018-06-22T18:22:40.497Z,61.23
2018-06-22T18:25:09.250Z,61.43
2018-06-22T18:27:38.699Z,63.15
2018-06-22T18:30:10.104Z,61.22
2018-06-22T18:32:38.926Z,62.25
2018-06-22T18:35:14.367Z,63.03
2018-06-22T18:37:43.161Z,63.01
2018-06-22T18:40:12.323Z,61.29
2018-06-22T18:42:41.078Z,62.76
2018-06-22T18:45:11.250Z,62.40
2018-06-22T18:47:40.572Z,63.62
2018-06-22T18:50:09.312Z,63.50
2018-06-22T18:52:43.140Z,62.28
2018-06-22T18:55:16.906Z,62.24
2018-06-22T18:57:50.604Z,62.39
2018-06-22T19:00:24.413Z,62.75
2018-06-22T19:02:58.362Z,62.48
2018-06-22T19:05:27.142Z,62.25
2018-06-22T19:07:55.962Z,61.03
2018-06-22T19:10:24.982Z,61.58
2018-06-22T19:12:53.755Z,62.05
2018-06-22T19:15:22.552Z,61.11
2018-06-22T19:17:51.314Z,61.30
2018-06-22T19:20:20.110Z,61.65
2018-06-22T19:22:48.893Z,61.74
2018-06-22T19:25:17.686Z,62.08
2018-06-22T19:27:46.518Z,61.97
2018-06-22T19:30:15.283Z,62.16
2018-06-22T19:32:44.082Z,62.48
2018-06-22T19:35:13.911Z,62.21
2018-06-22T19:37:43.991Z,62.29
2018-06-22T19:40:13.069Z,61.87
2018-06-22T19:42:41.841Z,61.24
2018-06-22T19:45:15.729Z,60.87
2018-06-22T19:47:49.671Z,61.04
2018-06-22T19:50:23.531Z,60.56
2018-06-22T19:52:57.370Z,60.67
2018-06-22T19:55:26.144Z,60.43
2018-06-22T19:57:54.929Z,60.08
2018-06-22T20:00:23.666Z,60.72
2018-06-22T20:02:52.544Z,61.59
2018-06-22T20:05:21.258Z,61.98
2018-06-22T20:07:50.040Z,62.16
2018-06-22T20:10:18.795Z,62.00
2018-06-22T20:12:47.610Z,62.42
2018-06-22T20:15:20.449Z,62.38
2018-06-22T20:17:49.164Z,62.66
2018-06-22T20:20:17.927Z,62.96
2018-06-22T20:22:46.748Z,63.07
2018-06-22T20:25:20.581Z,62.99
2018-06-22T20:27:49.326Z,63.17
2018-06-22T20:30:18.272Z,62.64
2018-06-22T20:32:47.132Z,62.36
2018-06-22T20:35:22.143Z,62.59
2018-06-22T20:37:58.084Z,62.42
2018-06-22T20:40:31.892Z,62.55
2018-06-22T20:43:05.851Z,61.58
2018-06-22T20:45:59.425Z,61.29
2018-06-22T20:48:33.653Z,60.69
2018-06-22T20:51:02.521Z,60.44
2018-06-22T20:53:31.416Z,59.92
2018-06-22T20:56:00.334Z,60.07
2018-06-22T20:58:29.328Z,59.62
2018-06-22T21:00:58.208Z,59.43
2018-06-22T21:03:27.039Z,59.64
2018-06-22T21:05:56.024Z,59.68
2018-06-22T21:08:24.793Z,59.60
2018-06-22T21:10:53.726Z,59.31
2018-06-22T21:13:22.661Z,60.14
2018-06-22T21:15:51.480Z,60.29
2018-06-22T21:18:20.531Z,60.87
2018-06-22T21:20:55.077Z,61.06
2018-06-22T21:23:25.058Z,61.79
2018-06-22T21:25:54.441Z,62.55
2018-06-22T21:28:28.409Z,62.86
2018-06-22T21:31:02.295Z,63.45
2018-06-22T21:33:36.176Z,63.01
2018-06-22T21:36:10.276Z,63.35
2018-06-22T21:38:44.108Z,63.45
2018-06-22T21:41:12.934Z,63.80
2018-06-22T21:43:41.758Z,64.37
2018-06-22T21:46:10.511Z,64.43
2018-06-22T21:48:39.248Z,64.73
2018-06-22T21:51:08.147Z,64.76
2018-06-22T21:53:37.068Z,64.92
2018-06-22T21:56:05.997Z,64.62
2018-06-22T21:58:34.828Z,64.39
2018-06-22T22:01:03.686Z,64.81
2018-06-22T22:03:32.476Z,64.26
2018-06-22T22:06:01.239Z,64.77
2018-06-22T22:08:30.095Z,64.79
2018-06-22T22:11:03.940Z,65.19
2018-06-22T22:13:33.752Z,64.58
2018-06-22T22:16:02.661Z,64.71
2018-06-22T22:18:31.479Z,64.79
2018-06-22T22:21:00.323Z,64.21
2018-06-22T22:23:29.173Z,65.22
2018-06-22T22:25:58.076Z,64.61
2018-06-22T22:28:26.871Z,65.23
2018-06-22T22:30:55.771Z,64.89
2018-06-22T22:33:24.724Z,65.19
2018-06-22T22:35:53.576Z,65.52
2018-06-22T22:38:22.385Z,65.27
2018-06-22T22:40:51.172Z,64.79
2018-06-22T22:43:26.129Z,65.22
2018-06-22T22:45:55.150Z,65.15
2018-06-22T22:48:24.254Z,65.77
2018-06-22T22:50:53.452Z,65.86
2018-06-22T22:53:22.228Z,65.61
2018-06-22T22:56:03.217Z,65.27
2018-06-22T22:58:33.038Z,65.94
2018-06-22T23:01:01.873Z,65.44
2018-06-22T23:03:30.716Z,65.33
2018-06-22T23:05:59.535Z,65.60
2018-06-22T23:08:28.292Z,65.21
2018-06-22T23:10:57.046Z,65.54
2018-06-22T23:13:25.847Z,65.36
2018-06-22T23:15:55.136Z,65.23
2018-06-22T23:18:24.021Z,65.19
2018-06-22T23:20:52.884Z,65.05
2018-06-22T23:23:42.144Z,64.80
2018-06-22T23:26:10.590Z,64.70
2018-06-22T23:28:39.463Z,64.42
2018-06-22T23:31:08.553Z,64.15
2018-06-22T23:33:37.546Z,64.26
2018-06-22T23:36:06.321Z,64.69
2018-06-22T23:38:35.277Z,64.22
2018-06-22T23:41:04.025Z,64.24
2018-06-22T23:43:33.672Z,64.40
2018-06-22T23:46:02.584Z,64.42
2018-06-22T23:48:31.323Z,64.44
2018-06-22T23:51:00.081Z,64.34
2018-06-22T23:53:28.818Z,63.94
2018-06-22T23:55:57.533Z,63.98
2018-06-22T23:58:26.271Z,63.43
